Time;durP1;ratioP1;P1;durP2;ratioP2;P2;SDS_P1;SDS_P2;PMS_P1;PMS_P2;Temp;Humidity;BMP_temperature;BMP_pressure;BME280_temperature;BME280_humidity;BME280_pressure;Samples;Min_cycle;Max_cycle;Signal;HPM_P1;HPM_P2
2021/03/26 00:02:02;;;;;;;25.80;22.43;;;8.40;99.90;;;;;;5093681;28;20446;-65
2021/03/26 00:04:28;;;;;;;23.80;21.40;;;8.30;99.90;;;;;;5092585;28;20474;-65
2021/03/26 00:06:54;;;;;;;30.73;22.83;;;8.30;99.90;;;;;;5092585;28;20462;-65
2021/03/26 00:09:23;;;;;;;25.00;22.30;;;8.20;99.90;;;;;;5092544;28;20446;-64
2021/03/26 00:11:51;;;;;;;24.23;21.80;;;8.20;99.90;;;;;;5092417;28;20812;-64
2021/03/26 00:14:18;;;;;;;28.33;21.77;;;8.20;99.90;;;;;;5092058;28;20511;-64
2021/03/26 00:16:45;;;;;;;28.80;21.80;;;8.20;99.90;;;;;;5092271;28;20445;-65
2021/03/26 00:19:11;;;;;;;32.17;22.37;;;8.10;99.90;;;;;;5092144;28;20474;-63
2021/03/26 00:21:38;;;;;;;25.97;22.20;;;8.10;99.90;;;;;;5092036;28;20497;-64
2021/03/26 00:24:06;;;;;;;25.97;22.87;;;8.10;99.90;;;;;;5091957;28;20466;-65
2021/03/26 00:26:32;;;;;;;31.70;22.17;;;8.10;99.90;;;;;;5092122;28;20442;-64
2021/03/26 00:28:58;;;;;;;26.43;20.93;;;8.10;99.90;;;;;;5092129;28;20449;-65
2021/03/26 00:31:25;;;;;;;30.07;23.30;;;8.10;99.90;;;;;;5092099;28;20450;-65
2021/03/26 00:33:52;;;;;;;33.37;24.50;;;8.10;99.90;;;;;;5091569;28;20467;-68
2021/03/26 00:36:18;;;;;;;26.90;22.43;;;8.10;99.90;;;;;;5091915;28;20948;-65
2021/03/26 00:38:44;;;;;;;37.50;22.97;;;8.00;99.90;;;;;;5092066;28;20450;-65
2021/03/26 00:41:10;;;;;;;26.90;22.87;;;8.00;99.90;;;;;;5091102;28;20482;-63
2021/03/26 00:43:38;;;;;;;26.30;22.13;;;7.90;99.90;;;;;;5091510;28;20516;-65
2021/03/26 00:46:04;;;;;;;33.50;24.87;;;7.80;99.90;;;;;;5091728;28;20952;-63
2021/03/26 00:48:31;;;;;;;32.13;24.37;;;7.80;99.90;;;;;;5091651;28;20434;-64
2021/03/26 00:51:01;;;;;;;30.60;26.00;;;7.80;99.90;;;;;;5091707;28;20435;-65
2021/03/26 00:53:30;;;;;;;33.23;24.60;;;7.70;99.90;;;;;;5091321;28;20446;-63
2021/03/26 00:55:56;;;;;;;32.87;25.43;;;7.70;99.90;;;;;;5091557;28;20454;-65
2021/03/26 00:58:23;;;;;;;34.17;27.90;;;7.60;99.90;;;;;;5091564;28;20445;-62
2021/03/26 01:00:50;;;;;;;35.00;24.03;;;7.60;99.90;;;;;;5091470;28;20820;-65
2021/03/26 01:03:18;;;;;;;34.70;26.63;;;7.60;99.90;;;;;;5072311;28;537146;-65
2021/03/26 01:05:49;;;;;;;30.07;22.67;;;7.60;99.90;;;;;;5092290;28;20465;-65
2021/03/26 01:08:15;;;;;;;32.27;26.00;;;7.50;99.90;;;;;;5092265;28;20442;-63
2021/03/26 01:10:46;;;;;;;31.93;24.70;;;7.50;99.90;;;;;;5092254;28;20955;-65
2021/03/26 01:13:15;;;;;;;29.67;25.80;;;7.40;99.90;;;;;;5091999;28;20801;-65
2021/03/26 01:15:41;;;;;;;34.30;26.23;;;7.40;99.90;;;;;;5092115;28;20493;-63
2021/03/26 01:18:13;;;;;;;31.53;28.13;;;7.40;99.90;;;;;;5091928;28;20971;-63
2021/03/26 01:20:40;;;;;;;40.93;27.90;;;7.40;99.90;;;;;;5092126;28;20520;-63
2021/03/26 01:23:07;;;;;;;35.40;27.47;;;7.40;99.90;;;;;;5091776;28;20446;-64
2021/03/26 01:25:39;;;;;;;34.97;26.77;;;7.50;99.90;;;;;;5091758;28;20516;-65
2021/03/26 01:28:07;;;;;;;35.53;25.40;;;7.50;99.90;;;;;;5092100;28;20889;-64
2021/03/26 01:30:34;;;;;;;34.00;25.93;;;7.60;99.90;;;;;;5091919;28;21036;-64
2021/03/26 01:33:02;;;;;;;30.23;25.37;;;7.60;99.90;;;;;;5091614;28;20499;-63
2021/03/26 01:35:29;;;;;;;32.77;25.10;;;7.60;99.90;;;;;;5091819;28;20458;-64
2021/03/26 01:37:55;;;;;;;32.87;25.03;;;7.70;99.90;;;;;;5091748;28;20450;-65
2021/03/26 01:40:26;;;;;;;31.47;24.17;;;7.70;99.90;;;;;;5091698;28;20485;-64
2021/03/26 01:42:53;;;;;;;28.80;23.23;;;7.70;99.90;;;;;;5091536;28;20447;-65
2021/03/26 01:45:22;;;;;;;32.37;25.67;;;7.60;99.90;;;;;;5091531;28;20465;-64
2021/03/26 01:47:53;;;;;;;26.87;21.10;;;7.60;99.90;;;;;;5091535;28;20454;-64
2021/03/26 01:50:21;;;;;;;32.47;24.87;;;7.60;99.90;;;;;;5091715;28;20442;-64
2021/03/26 01:52:49;;;;;;;31.53;26.13;;;7.50;99.90;;;;;;5090591;28;20454;-65
2021/03/26 01:55:22;;;;;;;30.03;21.77;;;7.40;99.90;;;;;;5091525;28;20458;-64
2021/03/26 01:57:49;;;;;;;31.70;23.77;;;7.40;99.90;;;;;;5091664;28;20499;-65
2021/03/26 02:00:24;;;;;;;34.13;26.87;;;7.30;99.90;;;;;;5091370;28;20506;-63
2021/03/26 02:02:51;;;;;;;38.40;27.90;;;7.30;99.90;;;;;;5091347;28;20437;-65
2021/03/26 02:05:23;;;;;;;34.20;27.43;;;7.30;99.90;;;;;;5091425;28;20855;-64
2021/03/26 02:07:50;;;;;;;33.67;25.60;;;7.30;99.90;;;;;;5091502;28;20453;-65
2021/03/26 02:10:16;;;;;;;30.40;24.87;;;7.30;99.90;;;;;;5091561;28;20437;-64
2021/03/26 02:12:44;;;;;;;34.73;28.60;;;7.20;99.90;;;;;;5091474;28;20492;-64
2021/03/26 02:15:18;;;;;;;30.80;24.70;;;7.20;99.90;;;;;;5091360;28;20469;-64
2021/03/26 02:17:44;;;;;;;30.47;25.77;;;7.20;99.90;;;;;;5091480;28;20442;-63
2021/03/26 02:20:23;;;;;;;31.13;24.97;;;7.20;99.90;;;;;;5091297;28;20481;-64
2021/03/26 02:22:50;;;;;;;31.33;23.73;;;7.10;99.90;;;;;;5091244;28;20443;-64
2021/03/26 02:25:22;;;;;;;33.97;26.03;;;7.10;99.90;;;;;;5091318;28;20462;-64
2021/03/26 02:27:48;;;;;;;36.70;27.40;;;7.00;99.90;;;;;;5091322;28;20959;-63
2021/03/26 02:30:20;;;;;;;36.33;28.90;;;6.90;99.90;;;;;;5091431;28;20439;-62
2021/03/26 02:32:47;;;;;;;37.50;27.63;;;6.90;99.90;;;;;;5091113;28;20998;-62
2021/03/26 02:35:22;;;;;;;38.00;28.33;;;6.90;99.90;;;;;;5091171;28;20471;-65
2021/03/26 02:37:53;;;;;;;42.03;29.37;;;6.80;99.90;;;;;;5091221;28;20837;-64
2021/03/26 02:40:26;;;;;;;45.07;30.57;;;6.80;99.90;;;;;;5091250;28;20478;-63
2021/03/26 02:43:01;;;;;;;35.30;27.37;;;6.80;99.90;;;;;;5091095;28;20511;-65
2021/03/26 02:45:35;;;;;;;43.07;31.10;;;6.80;99.90;;;;;;5091273;28;20470;-64
2021/03/26 02:48:06;;;;;;;44.80;31.97;;;6.70;99.90;;;;;;5091264;28;20446;-63
2021/03/26 02:50:51;;;;;;;37.87;28.13;;;6.70;99.90;;;;;;5091316;28;20491;-65
2021/03/26 02:53:25;;;;;;;43.70;29.63;;;6.70;99.90;;;;;;5091133;28;20442;-63
2021/03/26 02:55:59;;;;;;;46.43;32.30;;;6.60;99.90;;;;;;5091205;28;20468;-65
2021/03/26 02:58:28;;;;;;;38.80;28.80;;;6.60;99.90;;;;;;5091400;28;20446;-64
2021/03/26 03:00:57;;;;;;;38.03;28.50;;;6.60;99.90;;;;;;5090994;28;20478;-64
2021/03/26 03:03:27;;;;;;;40.60;28.57;;;6.50;99.90;;;;;;5090858;28;20442;-62
2021/03/26 03:05:58;;;;;;;42.90;31.80;;;6.50;99.90;;;;;;5094468;28;20457;-62
2021/03/26 03:08:28;;;;;;;43.13;31.67;;;6.50;99.90;;;;;;5094966;28;20449;-63
2021/03/26 03:10:59;;;;;;;43.67;31.23;;;6.50;99.90;;;;;;5094620;28;20477;-63
2021/03/26 03:13:33;;;;;;;44.43;32.50;;;6.50;99.90;;;;;;5094562;28;20503;-64
2021/03/26 03:16:13;;;;;;;47.63;32.23;;;6.50;99.90;;;;;;5094658;28;20446;-64
2021/03/26 03:18:43;;;;;;;49.03;32.60;;;6.50;99.90;;;;;;5094661;28;20446;-64
2021/03/26 03:21:15;;;;;;;44.20;33.27;;;6.50;99.90;;;;;;5094517;28;20478;-60
2021/03/26 03:23:49;;;;;;;45.03;32.50;;;6.60;99.90;;;;;;5094343;28;20449;-58
2021/03/26 03:26:22;;;;;;;45.30;32.27;;;6.50;99.90;;;;;;5094512;28;20803;-61
2021/03/26 03:28:55;;;;;;;44.20;30.80;;;6.60;99.90;;;;;;5094508;28;20443;-59
2021/03/26 03:31:28;;;;;;;42.33;32.80;;;6.60;99.90;;;;;;5094494;28;20438;-62
2021/03/26 03:34:01;;;;;;;43.40;30.80;;;6.60;99.90;;;;;;5094011;28;20889;-63
2021/03/26 03:36:37;;;;;;;46.50;33.90;;;6.60;99.90;;;;;;5094472;28;20485;-62
2021/03/26 03:39:12;;;;;;;46.80;36.30;;;6.60;99.90;;;;;;5094283;28;20499;-62
2021/03/26 03:41:43;;;;;;;47.40;34.90;;;6.60;99.90;;;;;;5094371;28;20506;-61
2021/03/26 03:44:14;;;;;;;48.50;34.60;;;6.60;99.90;;;;;;5093740;28;20469;-61
2021/03/26 03:46:48;;;;;;;43.73;32.63;;;6.60;99.90;;;;;;5094154;28;20792;-60
2021/03/26 03:49:22;;;;;;;47.10;33.80;;;6.50;99.90;;;;;;5094070;28;20445;-60
2021/03/26 03:51:55;;;;;;;45.87;32.90;;;6.50;99.90;;;;;;5094160;28;20488;-61
2021/03/26 03:54:29;;;;;;;46.40;34.23;;;6.50;99.90;;;;;;5093744;28;20472;-62
2021/03/26 03:57:00;;;;;;;43.43;32.80;;;6.50;99.90;;;;;;5093965;28;20442;-62
2021/03/26 03:59:34;;;;;;;48.50;33.60;;;6.50;99.90;;;;;;5093902;28;20521;-61
2021/03/26 04:02:03;;;;;;;47.17;30.30;;;6.50;99.90;;;;;;5093733;28;20478;-63
2021/03/26 04:04:37;;;;;;;46.80;32.90;;;6.50;99.90;;;;;;5093370;28;20481;-61
2021/03/26 04:07:08;;;;;;;45.03;32.03;;;6.50;99.90;;;;;;5093740;28;20442;-61
2021/03/26 04:09:40;;;;;;;51.07;33.43;;;6.40;99.90;;;;;;5093774;28;20449;-60
2021/03/26 04:12:11;;;;;;;45.80;33.77;;;6.40;99.90;;;;;;5093625;28;20473;-62
2021/03/26 04:14:42;;;;;;;44.67;35.40;;;6.40;99.90;;;;;;5093254;28;20993;-61
2021/03/26 04:17:13;;;;;;;52.30;34.70;;;6.40;99.90;;;;;;5092631;28;20924;-60
2021/03/26 04:19:47;;;;;;;53.40;34.17;;;6.40;99.90;;;;;;5093444;28;20812;-62
2021/03/26 04:22:18;;;;;;;48.07;33.00;;;6.30;99.90;;;;;;5093416;28;20482;-61
2021/03/26 04:24:48;;;;;;;51.03;33.60;;;6.30;99.90;;;;;;5093084;28;20469;-60
2021/03/26 04:27:21;;;;;;;50.67;33.53;;;6.30;99.90;;;;;;5093253;28;20507;-62
2021/03/26 04:29:53;;;;;;;45.57;33.93;;;6.30;99.90;;;;;;5093139;28;20450;-62
2021/03/26 04:32:21;;;;;;;50.87;36.93;;;6.30;99.90;;;;;;5093058;28;20441;-64
2021/03/26 04:34:48;;;;;;;54.10;34.30;;;6.30;99.90;;;;;;5092896;28;20490;-63
2021/03/26 04:37:20;;;;;;;49.53;36.80;;;6.20;99.90;;;;;;5093129;28;20443;-61
2021/03/26 04:39:54;;;;;;;54.03;37.00;;;6.20;99.90;;;;;;5092969;28;20503;-62
2021/03/26 04:42:27;;;;;;;48.70;36.20;;;6.20;99.90;;;;;;5093063;28;20823;-63
2021/03/26 04:44:58;;;;;;;57.53;39.17;;;6.30;99.90;;;;;;5092719;28;20520;-64
2021/03/26 04:47:29;;;;;;;54.80;36.57;;;6.20;99.90;;;;;;5092853;28;20927;-63
2021/03/26 04:49:57;;;;;;;62.67;37.20;;;6.20;99.90;;;;;;5092820;28;20442;-63
2021/03/26 04:52:31;;;;;;;55.20;38.07;;;6.20;99.90;;;;;;5092935;28;20447;-63
2021/03/26 04:55:05;;;;;;;52.87;38.13;;;6.20;99.90;;;;;;5092597;28;20473;-63
2021/03/26 04:57:37;;;;;;;60.50;38.43;;;6.10;99.90;;;;;;5092716;28;20446;-63
2021/03/26 05:00:10;;;;;;;55.43;35.63;;;6.10;99.90;;;;;;5092723;28;21004;-63
2021/03/26 05:02:40;;;;;;;58.00;38.60;;;6.10;99.90;;;;;;5092524;28;20442;-63
2021/03/26 05:05:08;;;;;;;60.97;38.00;;;6.10;99.90;;;;;;5092385;28;20524;-63
2021/03/26 05:07:40;;;;;;;60.90;40.10;;;6.10;99.90;;;;;;5092605;28;20443;-63
2021/03/26 05:10:09;;;;;;;57.70;39.43;;;6.10;99.90;;;;;;5092716;28;20442;-60
2021/03/26 05:12:41;;;;;;;54.53;39.50;;;6.00;99.90;;;;;;5092294;28;20442;-62
2021/03/26 05:15:11;;;;;;;64.97;39.13;;;6.00;99.90;;;;;;5092295;28;20466;-62
2021/03/26 05:17:42;;;;;;;72.30;42.67;;;6.00;99.90;;;;;;5092366;28;20420;-62
2021/03/26 05:20:18;;;;;;;66.87;43.47;;;6.00;99.90;;;;;;5092718;28;20478;-63
2021/03/26 05:22:51;;;;;;;59.03;39.20;;;5.90;99.90;;;;;;5092319;28;20453;-63
2021/03/26 05:25:24;;;;;;;58.00;39.17;;;6.00;99.90;;;;;;5092027;28;20523;-63
2021/03/26 05:27:52;;;;;;;56.43;38.87;;;6.00;99.90;;;;;;5092019;28;20436;-64
2021/03/26 05:30:23;;;;;;;56.83;39.37;;;6.00;99.90;;;;;;5092246;28;20446;-64
2021/03/26 05:32:56;;;;;;;67.17;42.87;;;6.00;99.90;;;;;;5091850;28;20499;-63
2021/03/26 05:35:25;;;;;;;65.33;44.00;;;6.00;99.90;;;;;;5091827;28;20458;-63
2021/03/26 05:38:00;;;;;;;69.77;41.37;;;6.10;99.90;;;;;;5092307;28;20495;-64
2021/03/26 05:40:59;;;;;;;65.80;40.53;;;6.10;99.90;;;;;;5091739;28;20820;-63
2021/03/26 05:43:46;;;;;;;57.50;38.90;;;6.10;99.90;;;;;;5056588;28;20765;-64
2021/03/26 05:46:20;;;;;;;64.33;42.17;;;6.20;99.90;;;;;;5090546;28;20492;-63
2021/03/26 05:48:58;;;;;;;55.00;36.03;;;6.20;99.90;;;;;;5090800;28;20804;-62
2021/03/26 05:51:39;;;;;;;57.97;38.10;;;6.20;99.90;;;;;;5090426;28;20434;-63
2021/03/26 05:54:21;;;;;;;59.07;41.10;;;6.20;99.90;;;;;;5090800;28;20458;-64
2021/03/26 05:57:06;;;;;;;68.37;40.30;;;6.30;99.90;;;;;;5091573;28;20448;-64
2021/03/26 05:59:44;;;;;;;56.37;36.00;;;6.30;99.90;;;;;;5091643;28;20438;-65
2021/03/26 06:02:38;;;;;;;55.17;37.57;;;6.40;99.90;;;;;;5091423;28;20478;-65
2021/03/26 06:05:24;;;;;;;54.77;38.80;;;6.50;99.90;;;;;;5091249;28;20474;-64
2021/03/26 06:08:08;;;;;;;53.17;36.40;;;6.50;99.90;;;;;;5091296;28;20445;-64
2021/03/26 06:11:03;;;;;;;49.20;36.17;;;6.60;99.90;;;;;;5091352;28;20430;-65
2021/03/26 06:13:53;;;;;;;52.63;36.97;;;6.60;99.90;;;;;;5090677;28;20809;-63
2021/03/26 06:16:37;;;;;;;55.77;36.47;;;6.70;99.90;;;;;;5091514;28;20428;-62
2021/03/26 06:19:34;;;;;;;53.47;35.67;;;6.80;99.90;;;;;;5091459;28;20442;-65
2021/03/26 06:22:17;;;;;;;58.87;40.20;;;6.80;99.90;;;;;;5091374;28;20505;-60
2021/03/26 06:25:01;;;;;;;48.37;35.37;;;6.90;99.90;;;;;;5091161;28;20462;-61
2021/03/26 06:27:32;;;;;;;46.27;35.20;;;7.00;99.90;;;;;;5091208;28;20469;-61
2021/03/26 06:30:18;;;;;;;51.47;35.57;;;7.10;99.90;;;;;;5091363;28;20447;-62
2021/03/26 06:33:17;;;;;;;39.73;33.00;;;7.10;99.90;;;;;;5091416;28;20442;-65
2021/03/26 06:36:01;;;;;;;45.50;33.73;;;7.20;99.90;;;;;;5091132;28;20515;-65
2021/03/26 06:38:45;;;;;;;45.03;34.37;;;7.30;99.90;;;;;;5091334;28;20443;-64
2021/03/26 06:41:22;;;;;;;46.17;31.70;;;7.40;99.90;;;;;;5094897;28;20500;-62
2021/03/26 06:44:24;;;;;;;45.00;32.13;;;7.50;99.90;;;;;;5094846;28;20469;-62
2021/03/26 06:46:58;;;;;;;44.23;33.10;;;7.60;99.90;;;;;;5094810;28;20480;-63
2021/03/26 06:49:37;;;;;;;39.43;29.83;;;7.70;99.90;;;;;;5094980;28;20441;-60
2021/03/26 06:52:15;;;;;;;42.27;31.77;;;7.80;99.90;;;;;;5094842;28;20934;-62
2021/03/26 06:55:05;;;;;;;46.50;29.87;;;7.90;99.90;;;;;;5095574;28;20978;-65
2021/03/26 06:58:14;;;;;;;39.67;30.13;;;8.10;99.90;;;;;;5084189;28;20457;-64
2021/03/26 07:00:56;;;;;;;43.97;31.00;;;8.20;99.90;;;;;;5095072;28;20495;-64
2021/03/26 07:03:43;;;;;;;37.33;30.10;;;8.30;99.90;;;;;;5094665;28;20456;-64
2021/03/26 07:06:42;;;;;;;34.57;29.30;;;8.50;99.90;;;;;;5095077;28;20438;-64
2021/03/26 07:09:36;;;;;;;43.00;32.13;;;8.60;99.90;;;;;;5094748;28;20446;-63
2021/03/26 07:12:20;;;;;;;42.20;32.97;;;8.70;99.90;;;;;;5094611;28;20439;-61
2021/03/26 07:14:59;;;;;;;39.60;32.47;;;8.80;99.90;;;;;;5094191;28;20515;-63
2021/03/26 07:17:55;;;;;;;41.20;31.37;;;8.90;99.90;;;;;;5094568;28;20449;-61
2021/03/26 07:20:45;;;;;;;39.23;33.97;;;9.00;99.90;;;;;;5094292;28;20531;-61
2021/03/26 07:23:49;;;;;;;39.37;33.13;;;9.10;99.90;;;;;;5094131;28;20827;-62
2021/03/26 07:26:26;;;;;;;42.93;32.80;;;9.20;99.90;;;;;;5094141;28;20446;-63
2021/03/26 07:29:28;;;;;;;37.90;33.57;;;9.30;99.90;;;;;;5094424;28;20441;-61
2021/03/26 07:32:21;;;;;;;41.03;35.27;;;9.40;99.90;;;;;;5093983;28;20818;-62
2021/03/26 07:35:07;;;;;;;42.13;35.17;;;9.50;99.90;;;;;;5093875;28;20485;-64
2021/03/26 07:37:46;;;;;;;39.83;33.97;;;9.60;99.90;;;;;;5094350;28;20450;-64
2021/03/26 07:40:33;;;;;;;45.93;38.17;;;9.70;99.90;;;;;;5094086;28;20954;-65
2021/03/26 07:43:19;;;;;;;39.43;34.07;;;9.80;99.90;;;;;;5094058;28;20499;-65
2021/03/26 07:46:06;;;;;;;40.50;36.30;;;9.90;99.90;;;;;;5094208;28;20478;-64
2021/03/26 07:49:01;;;;;;;38.23;33.90;;;10.00;99.90;;;;;;5094177;28;20854;-63
2021/03/26 07:51:31;;;;;;;36.60;32.63;;;10.10;99.90;;;;;;5057873;28;20454;-64
2021/03/26 07:54:34;;;;;;;37.80;32.37;;;10.20;99.90;;;;;;5093578;28;20462;-64
2021/03/26 07:57:17;;;;;;;39.43;35.43;;;10.30;99.90;;;;;;5092454;28;20461;-64
2021/03/26 08:00:06;;;;;;;41.13;36.70;;;10.40;99.90;;;;;;5093982;28;20495;-65
2021/03/26 08:02:41;;;;;;;39.50;35.33;;;10.40;99.90;;;;;;5093735;28;20488;-64
2021/03/26 08:05:20;;;;;;;42.03;38.07;;;10.50;99.90;;;;;;5093666;28;20474;-64
2021/03/26 08:08:21;;;;;;;39.53;35.67;;;10.70;99.90;;;;;;5093701;28;20447;-65
2021/03/26 08:10:51;;;;;;;38.17;34.27;;;10.70;99.90;;;;;;5093559;28;20437;-64
2021/03/26 08:13:35;;;;;;;37.57;33.87;;;10.90;99.90;;;;;;5093241;28;20439;-64
2021/03/26 08:16:27;;;;;;;35.90;32.43;;;10.90;99.90;;;;;;5093357;28;20445;-62
2021/03/26 08:19:03;;;;;;;36.77;33.27;;;11.10;99.90;;;;;;5093178;28;20450;-62
2021/03/26 08:21:34;;;;;;;37.13;33.63;;;11.10;99.90;;;;;;5093068;28;20577;-60
2021/03/26 08:24:40;;;;;;;36.47;33.17;;;11.20;99.90;;;;;;5092823;28;20539;-64
2021/03/26 08:27:20;;;;;;;35.23;32.10;;;11.40;99.90;;;;;;5093042;28;20485;-63
2021/03/26 08:29:58;;;;;;;36.93;33.07;;;11.50;99.90;;;;;;5093035;28;20438;-61
2021/03/26 08:32:45;;;;;;;37.67;33.97;;;11.70;99.90;;;;;;5093040;28;20437;-60
2021/03/26 08:35:29;;;;;;;36.17;32.83;;;11.80;99.90;;;;;;5092837;28;20827;-61
2021/03/26 08:38:11;;;;;;;36.70;33.27;;;12.00;99.90;;;;;;5092876;28;20495;-61
2021/03/26 08:40:48;;;;;;;32.93;30.20;;;12.10;99.90;;;;;;5092726;28;20872;-60
2021/03/26 08:43:17;;;;;;;33.70;30.60;;;12.20;99.90;;;;;;5092492;28;20495;-64
2021/03/26 08:45:48;;;;;;;34.10;31.10;;;12.40;99.90;;;;;;5092715;28;20462;-64
2021/03/26 08:48:29;;;;;;;33.57;30.47;;;12.50;99.90;;;;;;5092742;28;20813;-62
2021/03/26 08:51:18;;;;;;;32.43;29.83;;;12.60;99.90;;;;;;5092501;28;20445;-63
2021/03/26 08:53:54;;;;;;;35.13;32.07;;;12.70;99.90;;;;;;5092280;28;20466;-60
2021/03/26 08:56:35;;;;;;;34.67;31.40;;;12.80;99.90;;;;;;5092605;28;20589;-62
2021/03/26 08:59:35;;;;;;;30.40;27.87;;;13.00;99.90;;;;;;5092525;28;20794;-61
2021/03/26 09:02:31;;;;;;;28.90;26.63;;;13.00;99.90;;;;;;5091954;28;20482;-61
2021/03/26 09:05:13;;;;;;;31.43;28.63;;;13.10;99.90;;;;;;5092183;28;20470;-62
2021/03/26 09:07:55;;;;;;;33.30;30.50;;;13.20;99.90;;;;;;5092370;28;20755;-62
2021/03/26 09:11:03;;;;;;;31.07;28.63;;;13.30;99.90;;;;;;5092355;28;20478;-60
2021/03/26 09:13:39;;;;;;;29.27;26.90;;;13.40;99.90;;;;;;5092098;28;20438;-61
2021/03/26 09:16:10;;;;;;;30.13;27.63;;;13.40;99.90;;;;;;5092156;28;20434;-62
2021/03/26 09:18:51;;;;;;;29.73;27.43;;;13.50;99.90;;;;;;5092141;28;20931;-60
2021/03/26 09:21:28;;;;;;;30.87;28.37;;;13.60;99.90;;;;;;5091856;28;20501;-63
2021/03/26 09:24:21;;;;;;;28.50;26.20;;;13.70;99.80;;;;;;5091704;28;20462;-62
2021/03/26 09:26:56;;;;;;;29.13;26.53;;;13.80;98.80;;;;;;5073325;28;20454;-63
2021/03/26 09:29:32;;;;;;;30.43;28.00;;;13.90;97.60;;;;;;5091845;28;20481;-63
2021/03/26 09:32:06;;;;;;;28.80;26.63;;;14.00;97.80;;;;;;5092154;28;20441;-64
2021/03/26 09:34:38;;;;;;;26.43;24.33;;;14.00;97.10;;;;;;5091762;28;20453;-64
2021/03/26 09:37:17;;;;;;;26.90;24.80;;;14.00;95.40;;;;;;5092179;28;20446;-64
2021/03/26 09:39:47;;;;;;;25.90;24.10;;;14.00;95.00;;;;;;5092179;28;20849;-64
2021/03/26 09:42:30;;;;;;;26.50;24.60;;;14.10;94.80;;;;;;5091935;28;20501;-63
2021/03/26 09:45:04;;;;;;;25.80;23.93;;;14.20;94.00;;;;;;5091682;28;20473;-65
2021/03/26 09:47:38;;;;;;;26.40;24.33;;;14.30;92.90;;;;;;5091793;28;20442;-63
2021/03/26 09:50:21;;;;;;;26.50;24.60;;;14.40;92.40;;;;;;5091690;28;20442;-60
2021/03/26 09:52:49;;;;;;;25.40;23.40;;;14.50;92.30;;;;;;5091471;28;20438;-63
2021/03/26 09:55:21;;;;;;;25.77;23.90;;;14.60;90.00;;;;;;5091422;28;20477;-61
2021/03/26 09:57:51;;;;;;;26.00;23.90;;;14.70;90.20;;;;;;5091547;28;20438;-61
2021/03/26 10:00:48;;;;;;;25.30;23.60;;;15.20;88.60;;;;;;5091467;28;20442;-61
2021/03/26 10:03:28;;;;;;;24.00;22.30;;;15.50;84.10;;;;;;5091197;28;20469;-64
2021/03/26 10:06:00;;;;;;;26.60;24.70;;;15.70;80.10;;;;;;5091451;28;20452;-61
2021/03/26 10:08:45;;;;;;;26.97;25.17;;;16.10;75.20;;;;;;5091453;28;20503;-63
2021/03/26 10:11:15;;;;;;;25.10;23.43;;;16.40;73.40;;;;;;5091454;28;20434;-64
2021/03/26 10:13:46;;;;;;;26.73;24.73;;;16.50;68.50;;;;;;5091111;28;20443;-65
2021/03/26 10:16:15;;;;;;;24.50;22.90;;;16.40;67.60;;;;;;5095555;28;20877;-65
2021/03/26 10:18:45;;;;;;;25.10;23.13;;;16.30;66.30;;;;;;5095585;28;20448;-64
2021/03/26 10:21:17;;;;;;;25.70;23.67;;;16.40;66.10;;;;;;5095396;28;20470;-62
2021/03/26 10:23:52;;;;;;;26.63;24.63;;;16.50;65.90;;;;;;5095356;28;20488;-62
2021/03/26 10:26:23;;;;;;;25.50;23.40;;;16.70;65.50;;;;;;5095654;28;20784;-65
2021/03/26 10:29:12;;;;;;;26.33;24.63;;;17.10;64.50;;;;;;5095746;28;20506;-65
2021/03/26 10:31:40;;;;;;;25.90;24.20;;;17.30;63.30;;;;;;5095424;28;20457;-65
2021/03/26 10:34:08;;;;;;;26.10;23.53;;;17.70;61.40;;;;;;5094975;28;20951;-60
2021/03/26 10:36:44;;;;;;;26.53;24.70;;;17.50;59.90;;;;;;5095460;28;20445;-63
2021/03/26 10:39:13;;;;;;;26.87;24.87;;;17.20;59.40;;;;;;5095506;28;20495;-62
2021/03/26 10:41:53;;;;;;;27.67;25.83;;;17.20;59.70;;;;;;5095154;28;20500;-65
2021/03/26 10:44:29;;;;;;;25.73;24.13;;;17.10;59.20;;;;;;5094953;28;20462;-65
2021/03/26 10:47:08;;;;;;;26.77;24.90;;;17.00;59.30;;;;;;5095265;28;20507;-64
2021/03/26 10:49:40;;;;;;;26.80;24.90;;;17.40;60.20;;;;;;5094971;28;20931;-62
2021/03/26 10:52:13;;;;;;;25.87;24.23;;;17.60;59.40;;;;;;5094974;28;20439;-60
2021/03/26 10:54:46;;;;;;;24.80;22.70;;;18.10;57.90;;;;;;5094713;28;20473;-58
2021/03/26 10:57:21;;;;;;;24.50;23.00;;;18.10;56.20;;;;;;5094895;28;20977;-60
2021/03/26 10:59:59;;;;;;;24.40;22.77;;;18.20;55.70;;;;;;5094937;28;20438;-61
2021/03/26 11:03:02;;;;;;;25.77;24.07;;;18.50;54.70;;;;;;5094814;28;20500;-61
2021/03/26 11:05:40;;;;;;;25.07;23.50;;;19.10;54.00;;;;;;5073868;28;20840;-61
2021/03/26 11:08:30;;;;;;;23.40;21.90;;;19.10;52.10;;;;;;5094765;28;20449;-62
2021/03/26 11:11:02;;;;;;;22.50;21.10;;;19.60;52.10;;;;;;5094452;28;20496;-62
2021/03/26 11:13:46;;;;;;;22.17;20.87;;;19.60;50.60;;;;;;5094335;28;20450;-62
2021/03/26 11:16:19;;;;;;;22.47;21.20;;;18.80;50.00;;;;;;5094427;28;20510;-59
2021/03/26 11:18:53;;;;;;;22.43;21.17;;;19.50;50.80;;;;;;5095312;28;20446;-66
2021/03/26 11:21:22;;;;;;;22.03;20.73;;;20.20;49.50;;;;;;5094640;28;20888;-63
2021/03/26 11:23:58;;;;;;;23.27;21.70;;;19.90;48.70;;;;;;5094026;28;20466;-63
2021/03/26 11:26:31;;;;;;;22.80;21.50;;;19.30;48.80;;;;;;5094034;28;20453;-64
2021/03/26 11:29:03;;;;;;;23.00;21.50;;;19.40;48.80;;;;;;5094180;28;20523;-62
2021/03/26 11:31:32;;;;;;;22.80;21.30;;;19.40;48.80;;;;;;5094240;28;20520;-62
2021/03/26 11:34:18;;;;;;;24.10;22.60;;;20.80;49.20;;;;;;5093869;28;20485;-62
2021/03/26 11:37:11;;;;;;;24.43;22.87;;;23.70;46.20;;;;;;5094127;28;20442;-62
2021/03/26 11:39:50;;;;;;;25.70;24.17;;;25.20;41.90;;;;;;5090754;28;20451;-63
2021/03/26 11:42:47;;;;;;;27.57;25.87;;;25.40;40.00;;;;;;5093888;28;20473;-63
2021/03/26 11:45:35;;;;;;;27.50;26.10;;;25.20;39.70;;;;;;5093818;28;20486;-60
2021/03/26 11:48:08;;;;;;;26.53;25.00;;;25.10;38.20;;;;;;5093680;28;20449;-61
2021/03/26 11:50:37;;;;;;;26.10;24.60;;;26.00;39.00;;;;;;5093863;28;20450;-62
2021/03/26 11:53:22;;;;;;;25.50;24.00;;;23.50;37.90;;;;;;5093577;28;20442;-63
2021/03/26 11:56:02;;;;;;;24.13;23.13;;;24.20;39.30;;;;;;5093686;28;20461;-59
2021/03/26 11:58:34;;;;;;;25.97;24.37;;;26.30;38.00;;;;;;5093788;28;20947;-62
2021/03/26 12:01:08;;;;;;;27.50;25.20;;;25.70;35.80;;;;;;5093625;28;20833;-59
2021/03/26 12:03:43;;;;;;;26.20;24.57;;;25.80;35.60;;;;;;5093095;28;20462;-59
2021/03/26 12:06:23;;;;;;;26.40;25.00;;;27.60;35.60;;;;;;5093412;28;20488;-61
2021/03/26 12:08:57;;;;;;;25.67;24.17;;;29.80;33.10;;;;;;5093537;28;20442;-62
2021/03/26 12:11:31;;;;;;;25.00;23.77;;;32.10;30.20;;;;;;5093479;28;20434;-62
2021/03/26 12:14:06;;;;;;;25.23;24.13;;;32.90;28.50;;;;;;5093121;28;20466;-62
2021/03/26 12:16:37;;;;;;;25.80;24.50;;;33.10;27.60;;;;;;5093532;28;20539;-62
2021/03/26 12:19:05;;;;;;;26.70;25.03;;;33.80;26.90;;;;;;5093310;28;20457;-62
2021/03/26 12:21:46;;;;;;;25.27;24.00;;;34.30;25.90;;;;;;5093253;28;20477;-60
2021/03/26 12:24:25;;;;;;;25.70;24.40;;;29.90;27.20;;;;;;5092878;28;20541;-63
2021/03/26 12:27:00;;;;;;;24.70;23.23;;;27.50;29.50;;;;;;5092997;28;20499;-62
2021/03/26 12:29:34;;;;;;;25.23;23.80;;;26.00;31.40;;;;;;5093060;28;20471;-64
2021/03/26 12:32:10;;;;;;;26.40;24.57;;;24.80;33.50;;;;;;5092786;28;20866;-61
2021/03/26 12:34:52;;;;;;;23.37;22.07;;;27.20;33.70;;;;;;5092434;28;20462;-60
2021/03/26 12:37:25;;;;;;;25.30;24.10;;;26.30;32.10;;;;;;5092233;28;20540;-60
2021/03/26 12:40:10;;;;;;;25.70;24.40;;;24.90;33.90;;;;;;5092795;28;20438;-60
2021/03/26 12:42:43;;;;;;;25.57;24.30;;;23.70;35.00;;;;;;5092696;28;20485;-63
2021/03/26 12:45:16;;;;;;;24.93;23.67;;;23.60;35.90;;;;;;5092644;28;20485;-61
2021/03/26 12:47:47;;;;;;;24.20;23.00;;;23.30;36.50;;;;;;5092812;28;20438;-63
2021/03/26 12:50:17;;;;;;;22.10;21.10;;;23.30;37.40;;;;;;5092733;28;20449;-58
2021/03/26 12:52:58;;;;;;;23.07;21.87;;;23.60;37.00;;;;;;5092453;28;21000;-60
2021/03/26 12:55:37;;;;;;;23.43;22.23;;;23.00;37.40;;;;;;5092706;28;20539;-62
2021/03/26 12:58:47;;;;;;;24.13;22.93;;;24.80;38.20;;;;;;5092784;28;20857;-58
2021/03/26 13:01:18;;;;;;;24.73;23.37;;;29.70;31.90;;;;;;5058058;28;20547;-61
2021/03/26 13:03:55;;;;;;;24.50;23.30;;;28.40;29.20;;;;;;5092115;28;20474;-63
2021/03/26 13:06:26;;;;;;;23.40;22.20;;;26.90;31.00;;;;;;5092459;28;20449;-62
2021/03/26 13:09:05;;;;;;;22.90;21.90;;;27.60;32.20;;;;;;5092579;28;20454;-62
2021/03/26 13:11:37;;;;;;;23.13;21.83;;;29.80;29.60;;;;;;5092325;28;20438;-63
2021/03/26 13:14:12;;;;;;;23.83;22.63;;;29.80;28.70;;;;;;5092106;28;20526;-62
2021/03/26 13:16:45;;;;;;;24.07;22.87;;;29.00;30.00;;;;;;5092287;28;20448;-64
2021/03/26 13:19:24;;;;;;;24.40;23.17;;;29.50;29.00;;;;;;5092066;28;20445;-64